logo dgac
Jueves 24 de Enero del 2019
Buscar por aerodromo o helipuerto
Ingrese nombre de aeródromo, localidad o designador OACI:

Aeródromo: Melinka (PUB) (SCMK)

Ubicación: Melinka, XI Región, Chile (43º 53' 42'' S, 73º 44' 20'' W) Ver ubicación en el mapa

Pistas

Orientación Dimensión Pendiente Superficie Resistencia APCH THR RWY PAPI
18/36 800 x 18 1,00 ASPH 13.500 kg No No No No
Horas de operación HJ
Elevación 11 m / 35 ft
Otra Información Adm : D.G.A.C.
Uso : PUB
TEL (067) 2431515 / CEL 971084195
Ubicado a 500 m NE Melinka

Cámara de Aeródromo www.dgac.gob.cl

Otra información ver AIP-Chile Volumen I AD 3.9-11.1-M y VAC/#
CCCM/FCCV Descargar
andera de Chile
Mapa de Melinka (PUB) (SCMK)

Último METAR

METAR SCMK 232100Z 24008KT CAVOK 17/07 Q1015

Último TAF

TAF SCMK 231010Z 2312/2324 36008KT 9999 BKN045 TN10/2312Z TX15/2319Z BECMG 2316/2318 VRB03KT SCT045 BECMG 2319/2321 CAVOK

Últimas fotos cámaras

Imagen aerodromo Melinka (PUB) (SCMK) Sur tomada el 24-01-2019 02:16:30 Imagen aerodromo Melinka (PUB) (SCMK) Norte tomada el 24-01-2019 02:17:56

Último NOTAM

W0009/18 NOTAMN Q)SCTZ/Q/IV/NBO/W/000/999/4353S07344W005 A)SCMK B)1901281200 C)1901301500 D)BTN 1200-1500 E)RPAS FLT SECT, MELIYEMU, ZONE...D...RDO 0.55 NM CENTERED NXT GEO COORD: 440530S / 730228W F)GND G)300 FT AGL

LLegadas a Melinka (PUB) (SCMK)

En vuelo

Vuelo Procedencia Hora Despegue Local Hora Arribo Local

Salidas de Melinka (PUB) (SCMK)

En vuelo

Vuelo Hacia Hora Despegue Local Hora Arribo Local